createdAt,value
2022-11-18T00:00:19.031Z,10.20
2022-11-18T00:04:41.089Z,10.93
2022-11-18T00:09:03.398Z,12.43
2022-11-18T00:13:44.443Z,11.00
2022-11-18T00:18:06.321Z,11.80
2022-11-18T00:22:29.984Z,12.13
2022-11-18T00:26:52.368Z,11.38
2022-11-18T00:31:14.871Z,10.18
2022-11-18T00:35:36.790Z,11.05
2022-11-18T00:39:58.679Z,12.00
2022-11-18T00:44:20.647Z,9.70
2022-11-18T00:48:42.699Z,13.40
2022-11-18T00:53:04.493Z,11.75
2022-11-18T00:57:26.442Z,13.10
2022-11-18T01:01:49.277Z,11.77
2022-11-18T01:06:11.146Z,11.85
2022-11-18T01:10:33.216Z,12.35
2022-11-18T01:14:54.968Z,12.68
2022-11-18T01:19:19.613Z,11.30
2022-11-18T01:23:42.187Z,11.25
2022-11-18T01:28:05.318Z,11.73
2022-11-18T01:32:29.130Z,12.15
2022-11-18T01:36:53.179Z,13.50
2022-11-18T01:41:15.854Z,10.00
2022-11-18T01:45:43.536Z,14.23
2022-11-18T01:50:06.957Z,11.55
2022-11-18T01:54:36.130Z,9.68
2022-11-18T01:59:04.563Z,10.55
2022-11-18T02:03:27.873Z,12.05
2022-11-18T02:07:49.989Z,9.68
2022-11-18T02:12:13.122Z,12.48
2022-11-18T02:16:45.216Z,11.88
2022-11-18T02:21:49.314Z,14.15
2022-11-18T02:26:59.236Z,14.02
2022-11-18T02:31:47.660Z,14.63
2022-11-18T02:36:20.631Z,13.20
2022-11-18T02:40:52.931Z,14.80
2022-11-18T02:45:19.164Z,13.15
2022-11-18T02:49:55.997Z,16.67
2022-11-18T02:54:20.895Z,19.67
2022-11-18T02:58:42.971Z,17.17
2022-11-18T03:03:25.870Z,14.63
2022-11-18T03:07:55.584Z,15.00
2022-11-18T03:12:40.230Z,15.85
2022-11-18T03:17:21.990Z,14.25
2022-11-18T03:22:14.273Z,13.45
2022-11-18T03:26:44.367Z,24.73
2022-11-18T03:31:25.085Z,17.73
2022-11-18T03:35:50.176Z,16.27
2022-11-18T03:40:31.665Z,16.13
2022-11-18T03:45:10.210Z,24.80
2022-11-18T03:49:46.449Z,19.55
2022-11-18T03:54:19.163Z,15.52
2022-11-18T03:58:58.498Z,17.33
2022-11-18T04:03:20.541Z,18.02
2022-11-18T04:07:48.928Z,18.38
2022-11-18T04:12:17.885Z,15.90
2022-11-18T04:16:45.133Z,19.75
2022-11-18T04:21:07.228Z,24.73
2022-11-18T04:25:28.985Z,19.15
2022-11-18T04:29:51.042Z,27.23
2022-11-18T04:34:13.128Z,18.55
2022-11-18T04:38:35.124Z,17.30
2022-11-18T04:42:58.074Z,19.13
2022-11-18T04:47:20.045Z,19.65
2022-11-18T04:51:43.552Z,18.42
2022-11-18T04:56:08.994Z,18.55
2022-11-18T05:00:30.684Z,19.08
2022-11-18T05:04:52.665Z,17.83
2022-11-18T05:09:15.649Z,17.58
2022-11-18T05:13:38.172Z,15.60
2022-11-18T05:18:00.212Z,20.20
2022-11-18T05:22:22.054Z,17.75
2022-11-18T05:26:44.405Z,19.08
2022-11-18T05:31:13.462Z,19.42
2022-11-18T05:35:37.504Z,18.27
2022-11-18T05:39:59.554Z,18.35
2022-11-18T05:44:21.399Z,22.98
2022-11-18T05:48:43.494Z,20.75
2022-11-18T05:53:09.122Z,22.42
2022-11-18T05:57:32.255Z,19.08
2022-11-18T06:02:14.646Z,19.58
2022-11-18T06:06:36.853Z,21.02
2022-11-18T06:10:59.457Z,19.15
2022-11-18T06:15:33.839Z,24.92
2022-11-18T06:19:56.982Z,24.50
2022-11-18T06:24:19.274Z,25.42
2022-11-18T06:28:41.911Z,28.98
2022-11-18T06:33:03.869Z,31.25
2022-11-18T06:37:25.622Z,32.47
2022-11-18T06:41:47.474Z,39.88
2022-11-18T06:46:32.501Z,39.42
2022-11-18T06:50:54.523Z,37.50
2022-11-18T06:55:16.528Z,41.03
2022-11-18T06:59:38.411Z,37.75
2022-11-18T07:04:01.483Z,37.30
2022-11-18T07:08:23.426Z,32.08
2022-11-18T07:12:45.399Z,29.50
2022-11-18T07:17:07.375Z,30.00
2022-11-18T07:21:29.808Z,26.27
2022-11-18T07:25:55.875Z,23.98
2022-11-18T07:30:18.198Z,23.15
2022-11-18T07:34:40.226Z,21.17
2022-11-18T07:39:03.496Z,25.45
2022-11-18T07:43:25.158Z,23.55
2022-11-18T07:47:47.061Z,23.17
2022-11-18T07:52:09.213Z,26.92
2022-11-18T07:56:31.096Z,33.00
2022-11-18T08:00:52.984Z,41.92
2022-11-18T08:05:18.069Z,43.90
2022-11-18T08:09:40.209Z,36.03
2022-11-18T08:14:02.367Z,34.55
2022-11-18T08:18:24.874Z,44.58
2022-11-18T08:22:46.467Z,32.15
2022-11-18T08:27:08.355Z,32.55
2022-11-18T08:31:31.638Z,29.73
2022-11-18T08:35:53.407Z,26.20
2022-11-18T08:40:15.707Z,28.05
2022-11-18T08:44:37.601Z,25.65
2022-11-18T08:48:59.707Z,25.20
2022-11-18T08:53:21.775Z,26.35
2022-11-18T08:57:43.553Z,26.67
2022-11-18T09:02:05.567Z,27.95
2022-11-18T09:06:27.698Z,29.60
2022-11-18T09:10:49.732Z,29.73
2022-11-18T09:15:13.853Z,28.77
2022-11-18T09:19:51.811Z,29.90
2022-11-18T09:24:13.640Z,33.55
2022-11-18T09:28:36.255Z,30.02
2022-11-18T09:32:58.308Z,32.97
2022-11-18T09:37:20.541Z,30.45
2022-11-18T09:42:28.153Z,30.95
2022-11-18T09:47:33.789Z,28.92
2022-11-18T09:51:57.343Z,27.90
2022-11-18T09:56:20.326Z,32.58
2022-11-18T10:00:43.317Z,29.15
2022-11-18T10:05:24.328Z,31.77
2022-11-18T10:09:50.461Z,28.60
2022-11-18T10:14:33.849Z,33.33
2022-11-18T10:19:34.272Z,36.65
2022-11-18T10:24:27.084Z,35.35
2022-11-18T10:28:48.855Z,36.92
2022-11-18T10:33:27.045Z,35.88
2022-11-18T10:38:14.894Z,34.90
2022-11-18T10:42:43.068Z,35.38
2022-11-18T10:47:24.265Z,39.03
2022-11-18T10:52:11.246Z,37.85
2022-11-18T10:56:58.497Z,42.25
2022-11-18T11:01:25.400Z,40.58
2022-11-18T11:05:47.226Z,43.30
2022-11-18T11:10:22.841Z,39.58
2022-11-18T11:14:58.316Z,47.17
2022-11-18T11:19:24.552Z,43.35
2022-11-18T11:23:47.048Z,43.53
2022-11-18T11:28:43.363Z,41.35
2022-11-18T11:33:31.089Z,39.47
2022-11-18T11:38:00.848Z,45.65
2022-11-18T11:42:58.644Z,32.95
2022-11-18T11:47:47.514Z,36.47
2022-11-18T11:52:29.835Z,35.03
2022-11-18T11:57:06.223Z,28.85
2022-11-18T12:01:47.314Z,29.63
2022-11-18T12:06:12.732Z,33.03
2022-11-18T12:10:59.088Z,36.08
2022-11-18T12:15:32.044Z,37.45
2022-11-18T12:19:54.091Z,36.15
2022-11-18T12:24:31.439Z,35.25
2022-11-18T12:28:53.281Z,35.63
2022-11-18T12:33:18.254Z,29.67
2022-11-18T12:37:44.361Z,30.95
2022-11-18T12:42:47.751Z,28.40
2022-11-18T12:47:12.657Z,30.48
2022-11-18T12:51:41.865Z,26.38
2022-11-18T12:56:36.985Z,24.10
2022-11-18T13:01:12.531Z,23.08
2022-11-18T13:05:36.480Z,21.63
2022-11-18T13:09:58.819Z,23.08
2022-11-18T13:14:49.232Z,20.90
2022-11-18T13:19:24.950Z,19.67
2022-11-18T13:23:59.347Z,23.88
2022-11-18T13:28:50.143Z,25.38
2022-11-18T13:33:12.340Z,23.98
2022-11-18T13:37:34.438Z,24.98
2022-11-18T13:42:19.194Z,26.45
2022-11-18T13:46:43.015Z,30.20
2022-11-18T13:51:05.215Z,26.77
2022-11-18T13:55:43.973Z,24.60
2022-11-18T14:00:19.582Z,30.73
2022-11-18T14:04:57.044Z,32.80
2022-11-18T14:09:29.966Z,35.97
2022-11-18T14:13:54.841Z,39.33
2022-11-18T14:18:37.181Z,36.60
2022-11-18T14:23:05.603Z,43.38
2022-11-18T14:27:37.497Z,39.80
2022-11-18T14:32:10.978Z,36.78
2022-11-18T14:36:32.774Z,40.90
2022-11-18T14:41:01.366Z,43.78
2022-11-18T14:45:24.272Z,43.92
2022-11-18T14:49:46.341Z,39.38
2022-11-18T14:54:14.055Z,46.08
2022-11-18T14:58:35.734Z,44.38
2022-11-18T15:02:57.576Z,44.10
2022-11-18T15:07:23.680Z,41.55
2022-11-18T15:11:46.250Z,42.25
2022-11-18T15:16:26.355Z,46.17
2022-11-18T15:20:48.886Z,46.80
2022-11-18T15:25:10.950Z,44.05
2022-11-18T15:29:32.940Z,46.05
2022-11-18T15:33:54.844Z,48.25
2022-11-18T15:38:16.881Z,51.40
2022-11-18T15:42:47.499Z,56.53
2022-11-18T15:47:14.206Z,60.10
2022-11-18T15:51:36.252Z,59.78
2022-11-18T15:56:23.204Z,68.18
2022-11-18T16:00:45.417Z,56.40
2022-11-18T16:05:08.004Z,58.97
2022-11-18T16:09:51.464Z,56.88
2022-11-18T16:14:15.127Z,60.65
2022-11-18T16:18:40.619Z,63.88
2022-11-18T16:23:02.787Z,57.17
2022-11-18T16:27:24.766Z,60.38
2022-11-18T16:31:52.864Z,62.20
2022-11-18T16:36:15.038Z,62.55
2022-11-18T16:40:37.399Z,63.22
2022-11-18T16:45:00.366Z,63.95
2022-11-18T16:49:26.079Z,60.42
2022-11-18T16:54:03.646Z,58.75
2022-11-18T16:58:25.518Z,66.72
2022-11-18T17:02:47.452Z,69.63
2022-11-18T17:07:09.905Z,70.30
2022-11-18T17:11:32.779Z,70.38
2022-11-18T17:15:54.333Z,67.53
2022-11-18T17:20:16.614Z,69.18
2022-11-18T17:24:38.445Z,71.75
2022-11-18T17:29:01.017Z,69.78
2022-11-18T17:33:23.612Z,68.05
2022-11-18T17:37:46.073Z,65.50
2022-11-18T17:42:14.061Z,67.78
2022-11-18T17:46:38.478Z,65.95
2022-11-18T17:51:05.416Z,67.82
2022-11-18T17:55:27.256Z,66.03
2022-11-18T17:59:49.389Z,64.03
2022-11-18T18:04:14.552Z,63.55
2022-11-18T18:08:37.011Z,60.97
2022-11-18T18:13:17.476Z,63.88
2022-11-18T18:17:39.303Z,61.20
2022-11-18T18:22:01.275Z,58.13
2022-11-18T18:26:28.286Z,58.78
2022-11-18T18:31:01.204Z,61.05
2022-11-18T18:35:23.251Z,60.80
2022-11-18T18:39:46.688Z,60.63
2022-11-18T18:44:11.346Z,59.78
2022-11-18T18:48:35.748Z,53.90
2022-11-18T18:52:57.455Z,59.67
2022-11-18T18:57:19.320Z,58.78
2022-11-18T19:01:41.490Z,54.13
2022-11-18T19:11:38.073Z,59.78
2022-11-18T19:16:06.373Z,49.53
2022-11-18T19:20:34.130Z,60.65
2022-11-18T19:24:56.473Z,60.15
2022-11-18T19:29:24.274Z,56.05
2022-11-18T19:33:47.956Z,56.97
2022-11-18T19:38:10.102Z,56.88
2022-11-18T19:42:33.406Z,56.33
2022-11-18T19:46:55.739Z,51.45
2022-11-18T19:51:18.646Z,51.40
2022-11-18T19:55:40.490Z,51.90
2022-11-18T20:00:02.704Z,53.20
2022-11-18T20:04:31.105Z,51.50
2022-11-18T20:08:54.806Z,48.28
2022-11-18T20:13:17.213Z,47.50
2022-11-18T20:17:39.424Z,49.13
2022-11-18T20:22:01.313Z,43.67
2022-11-18T20:26:26.927Z,46.80
2022-11-18T20:30:55.134Z,41.03
2022-11-18T20:35:17.172Z,48.20
2022-11-18T20:39:39.172Z,36.35
2022-11-18T20:44:01.424Z,33.65
2022-11-18T20:48:23.724Z,34.33
2022-11-18T20:52:45.720Z,33.85
2022-11-18T20:57:07.542Z,33.63
2022-11-18T21:01:30.222Z,26.98
2022-11-18T21:05:51.935Z,27.92
2022-11-18T21:10:13.675Z,26.17
2022-11-18T21:14:35.697Z,25.70
2022-11-18T21:18:57.631Z,27.42
2022-11-18T21:23:19.546Z,24.20
2022-11-18T21:27:41.376Z,21.05
2022-11-18T21:32:03.193Z,23.50
2022-11-18T21:36:27.298Z,21.17
2022-11-18T21:40:48.920Z,22.95
2022-11-18T21:45:11.101Z,21.13
2022-11-18T21:49:32.892Z,24.33
2022-11-18T21:53:54.932Z,22.27
2022-11-18T21:58:16.672Z,23.38
2022-11-18T22:02:38.702Z,22.42
2022-11-18T22:07:00.593Z,21.60
2022-11-18T22:11:22.742Z,27.83
2022-11-18T22:16:03.555Z,21.20
2022-11-18T22:20:27.932Z,20.55
2022-11-18T22:24:50.091Z,20.05
2022-11-18T22:29:11.809Z,20.80
2022-11-18T22:33:34.403Z,20.45
2022-11-18T22:37:59.412Z,24.92
2022-11-18T22:42:39.830Z,22.45
2022-11-18T22:47:01.660Z,23.63
2022-11-18T22:51:23.757Z,22.25
2022-11-18T22:55:45.765Z,21.75
2022-11-18T23:00:09.569Z,21.92
2022-11-18T23:04:31.409Z,22.17
2022-11-18T23:08:53.402Z,20.80
2022-11-18T23:13:34.137Z,23.48
2022-11-18T23:17:55.790Z,22.23
2022-11-18T23:22:17.927Z,24.42
2022-11-18T23:26:39.941Z,20.80
2022-11-18T23:31:09.977Z,20.50
2022-11-18T23:35:31.809Z,21.25
2022-11-18T23:39:53.722Z,18.58
2022-11-18T23:44:15.697Z,23.83
2022-11-18T23:48:39.702Z,20.95
2022-11-18T23:53:01.739Z,21.85
2022-11-18T23:57:23.628Z,21.52
